createdAt,value
2022-09-12T00:00:55.496Z,0.00
2022-09-12T00:01:55.455Z,0.00
2022-09-12T00:02:55.447Z,0.00
2022-09-12T00:03:55.420Z,0.00
2022-09-12T00:04:55.373Z,0.00
2022-09-12T00:05:55.373Z,0.00
2022-09-12T00:06:55.339Z,0.00
2022-09-12T00:07:55.370Z,0.00
2022-09-12T00:08:55.301Z,0.00
2022-09-12T00:09:55.342Z,0.00
2022-09-12T00:10:55.308Z,0.00
2022-09-12T00:11:55.258Z,0.00
2022-09-12T00:12:55.266Z,0.00
2022-09-12T00:13:55.234Z,0.00
2022-09-12T00:14:55.233Z,0.00
2022-09-12T00:15:55.183Z,0.00
2022-09-12T00:16:55.207Z,0.00
2022-09-12T00:17:55.210Z,0.00
2022-09-12T00:18:55.134Z,0.00
2022-09-12T00:19:55.133Z,0.00
2022-09-12T00:20:55.128Z,0.00
2022-09-12T00:21:55.080Z,0.00
2022-09-12T00:22:55.097Z,0.00
2022-09-12T00:23:55.053Z,0.00
2022-09-12T00:24:55.040Z,0.00
2022-09-12T00:25:55.067Z,0.00
2022-09-12T00:26:55.009Z,0.00
2022-09-12T00:27:55.029Z,0.00
2022-09-12T00:28:54.962Z,0.00
2022-09-12T00:29:54.949Z,0.00
2022-09-12T00:30:54.942Z,0.00
2022-09-12T00:31:54.948Z,0.00
2022-09-12T00:32:54.922Z,0.00
2022-09-12T00:33:54.886Z,0.00
2022-09-12T00:34:54.873Z,0.00
2022-09-12T00:35:54.848Z,0.00
2022-09-12T00:36:54.810Z,0.00
2022-09-12T00:37:54.830Z,0.00
2022-09-12T00:38:54.865Z,0.00
2022-09-12T00:39:54.807Z,0.00
2022-09-12T00:40:54.758Z,0.00
2022-09-12T00:41:54.747Z,0.00
2022-09-12T00:42:54.755Z,0.00
2022-09-12T00:43:54.720Z,0.00
2022-09-12T00:44:54.688Z,0.00
2022-09-12T00:45:54.720Z,0.00
2022-09-12T00:46:54.691Z,0.00
2022-09-12T00:47:54.680Z,0.00
2022-09-12T00:48:54.639Z,0.00
2022-09-12T00:49:54.608Z,0.00
2022-09-12T00:50:54.595Z,0.00
2022-09-12T00:51:54.603Z,0.00
2022-09-12T00:52:54.630Z,0.00
2022-09-12T00:53:54.531Z,0.00
2022-09-12T00:54:54.523Z,0.00
2022-09-12T00:55:54.505Z,0.00
2022-09-12T00:56:54.491Z,0.00
2022-09-12T00:57:54.504Z,0.00
2022-09-12T00:58:54.455Z,0.00
2022-09-12T00:59:54.521Z,0.00
2022-09-12T01:00:54.670Z,0.00
2022-09-12T01:01:54.491Z,0.00
2022-09-12T01:02:54.433Z,0.00
2022-09-12T01:03:54.383Z,0.00
2022-09-12T01:04:54.359Z,0.00
2022-09-12T01:05:54.348Z,0.00
2022-09-12T01:06:54.360Z,0.00
2022-09-12T01:07:54.345Z,0.00
2022-09-12T01:08:54.319Z,0.00
2022-09-12T01:09:54.273Z,0.00
2022-09-12T01:10:54.280Z,0.00
2022-09-12T01:11:54.244Z,0.00
2022-09-12T01:12:54.260Z,0.00
2022-09-12T01:13:54.214Z,0.00
2022-09-12T01:14:54.204Z,0.00
2022-09-12T01:15:54.178Z,0.00
2022-09-12T01:16:54.177Z,0.00
2022-09-12T01:17:54.184Z,0.00
2022-09-12T01:18:54.128Z,0.00
2022-09-12T01:19:54.104Z,0.00
2022-09-12T01:20:54.092Z,0.00
2022-09-12T01:21:54.073Z,0.00
2022-09-12T01:22:54.110Z,0.00
2022-09-12T01:23:54.052Z,0.00
2022-09-12T01:24:54.024Z,0.00
2022-09-12T01:25:54.027Z,0.00
2022-09-12T01:26:53.985Z,0.00
2022-09-12T01:27:54.007Z,0.00
2022-09-12T01:28:53.956Z,0.00
2022-09-12T01:29:53.957Z,0.00
2022-09-12T01:30:53.917Z,0.00
2022-09-12T01:31:53.925Z,0.00
2022-09-12T01:32:53.926Z,0.00
2022-09-12T01:33:53.875Z,0.00
2022-09-12T01:34:53.852Z,0.00
2022-09-12T01:35:53.838Z,0.00
2022-09-12T01:36:53.820Z,0.00
2022-09-12T01:37:53.829Z,0.00
2022-09-12T01:38:53.781Z,0.00
2022-09-12T01:39:53.858Z,0.00
2022-09-12T01:40:53.741Z,0.00
2022-09-12T01:41:53.737Z,0.00
2022-09-12T01:42:53.742Z,0.00
2022-09-12T01:43:53.692Z,0.00
2022-09-12T01:44:53.702Z,0.00
2022-09-12T01:45:53.712Z,0.00
2022-09-12T01:46:53.660Z,0.00
2022-09-12T01:47:53.670Z,0.00
2022-09-12T01:48:53.626Z,0.00
2022-09-12T01:49:54.614Z,0.00
2022-09-12T01:50:53.593Z,0.00
2022-09-12T01:51:53.594Z,0.00
2022-09-12T01:52:53.600Z,0.00
2022-09-12T01:53:53.528Z,0.00
2022-09-12T01:54:53.518Z,0.00
2022-09-12T01:55:53.520Z,0.00
2022-09-12T01:56:53.473Z,0.00
2022-09-12T01:57:54.499Z,0.00
2022-09-12T01:58:53.444Z,0.00
2022-09-12T01:59:53.439Z,0.00
2022-09-12T02:00:53.448Z,0.00
2022-09-12T02:01:53.435Z,0.00
2022-09-12T02:02:53.372Z,0.00
2022-09-12T02:03:53.389Z,0.00
2022-09-12T02:04:53.342Z,0.00
2022-09-12T02:05:53.335Z,0.00
2022-09-12T02:06:53.323Z,0.00
2022-09-12T02:07:53.296Z,0.00
2022-09-12T02:08:53.309Z,0.00
2022-09-12T02:09:53.263Z,0.00
2022-09-12T02:10:53.263Z,0.00
2022-09-12T02:11:53.234Z,0.00
2022-09-12T02:12:53.227Z,0.00
2022-09-12T02:13:53.237Z,0.00
2022-09-12T02:14:53.186Z,0.00
2022-09-12T02:15:53.157Z,0.00
2022-09-12T02:16:53.152Z,0.00
2022-09-12T02:17:53.149Z,0.00
2022-09-12T02:18:53.141Z,0.00
2022-09-12T02:19:53.098Z,0.00
2022-09-12T02:20:53.114Z,0.00
2022-09-12T02:21:53.079Z,0.00
2022-09-12T02:22:53.093Z,0.00
2022-09-12T02:23:53.074Z,0.00
2022-09-12T02:24:53.009Z,0.00
2022-09-12T02:25:53.104Z,0.00
2022-09-12T02:26:53.017Z,0.00
2022-09-12T02:27:52.991Z,0.00
2022-09-12T02:28:52.981Z,0.00
2022-09-12T02:29:52.932Z,0.00
2022-09-12T02:30:52.964Z,0.00
2022-09-12T02:31:52.894Z,0.00
2022-09-12T02:32:52.868Z,0.00
2022-09-12T02:33:52.885Z,0.00
2022-09-12T02:34:52.840Z,0.00
2022-09-12T02:35:52.824Z,0.00
2022-09-12T02:36:52.801Z,0.00
2022-09-12T02:37:52.798Z,0.00
2022-09-12T02:38:52.931Z,0.00
2022-09-12T02:39:52.773Z,0.00
2022-09-12T02:40:52.752Z,0.00
2022-09-12T02:41:52.714Z,0.00
2022-09-12T02:42:52.721Z,0.00
2022-09-12T02:43:52.720Z,0.00
2022-09-12T02:44:52.695Z,0.00
2022-09-12T02:45:52.677Z,0.00
2022-09-12T02:46:52.637Z,0.00
2022-09-12T02:47:52.623Z,0.00
2022-09-12T02:48:52.648Z,0.00
2022-09-12T02:49:52.581Z,0.00
2022-09-12T02:50:52.586Z,0.00
2022-09-12T02:51:52.546Z,0.00
2022-09-12T02:52:52.539Z,0.00
2022-09-12T02:53:52.551Z,0.00
2022-09-12T02:54:52.518Z,0.00
2022-09-12T02:55:52.497Z,0.00
2022-09-12T02:56:52.504Z,0.00
2022-09-12T02:57:52.477Z,0.00
2022-09-12T02:58:52.463Z,0.00
2022-09-12T02:59:52.427Z,0.00
2022-09-12T03:00:52.465Z,0.00
2022-09-12T03:01:52.434Z,0.00
2022-09-12T03:02:52.389Z,0.00
2022-09-12T03:03:53.382Z,0.00
2022-09-12T03:04:52.351Z,0.00
2022-09-12T03:05:52.329Z,0.00
2022-09-12T03:06:52.320Z,0.00
2022-09-12T03:07:52.294Z,0.00
2022-09-12T03:08:52.330Z,0.00
2022-09-12T03:09:52.264Z,0.00
2022-09-12T03:10:52.243Z,0.00
2022-09-12T03:11:52.222Z,0.00
2022-09-12T03:12:52.200Z,0.00
2022-09-12T03:13:52.228Z,0.00
2022-09-12T03:14:52.179Z,0.00
2022-09-12T03:15:52.171Z,0.00
2022-09-12T03:16:52.139Z,0.00
2022-09-12T03:17:52.137Z,0.00
2022-09-12T03:18:52.144Z,0.00
2022-09-12T03:19:52.094Z,0.00
2022-09-12T03:20:52.071Z,0.00
2022-09-12T03:21:52.058Z,0.00
2022-09-12T03:22:52.044Z,0.00
2022-09-12T03:23:52.081Z,0.00
2022-09-12T03:24:52.029Z,0.00
2022-09-12T03:25:51.990Z,0.00
2022-09-12T03:26:51.975Z,0.00
2022-09-12T03:27:51.951Z,0.00
2022-09-12T03:28:51.967Z,0.00
2022-09-12T03:29:51.923Z,0.00
2022-09-12T03:30:51.942Z,0.00
2022-09-12T03:31:51.887Z,0.00
2022-09-12T03:32:51.882Z,0.00
2022-09-12T03:33:51.892Z,0.00
2022-09-12T03:34:51.844Z,0.00
2022-09-12T03:35:51.824Z,0.00
2022-09-12T03:36:51.810Z,0.00
2022-09-12T03:37:51.787Z,0.00
2022-09-12T03:38:51.801Z,0.00
2022-09-12T03:39:51.782Z,0.00
2022-09-12T03:40:54.805Z,0.00
2022-09-12T03:41:52.717Z,0.00
2022-09-12T03:42:51.705Z,0.00
2022-09-12T03:43:51.712Z,0.00
2022-09-12T03:44:51.669Z,0.00
2022-09-12T03:45:51.663Z,0.00
2022-09-12T03:46:51.634Z,0.00
2022-09-12T03:47:51.641Z,0.00
2022-09-12T03:48:51.636Z,0.00
2022-09-12T03:49:51.588Z,0.00
2022-09-12T03:50:51.561Z,0.00
2022-09-12T03:51:51.553Z,0.00
2022-09-12T03:52:51.532Z,0.00
2022-09-12T03:53:51.541Z,0.00
2022-09-12T03:54:51.491Z,0.00
2022-09-12T03:55:51.479Z,0.00
2022-09-12T03:56:51.464Z,0.00
2022-09-12T03:57:51.455Z,0.00
2022-09-12T03:58:51.463Z,0.00
2022-09-12T03:59:51.418Z,0.00
2022-09-12T04:00:51.441Z,0.00
2022-09-12T04:01:51.451Z,0.00
2022-09-12T04:02:51.369Z,0.00
2022-09-12T04:03:51.398Z,0.00
2022-09-12T04:04:51.358Z,0.00
2022-09-12T04:05:51.307Z,0.00
2022-09-12T04:06:51.301Z,0.00
2022-09-12T04:07:51.297Z,0.00
2022-09-12T04:08:51.361Z,0.00
2022-09-12T04:09:51.269Z,0.00
2022-09-12T04:10:51.227Z,0.00
2022-09-12T04:11:51.226Z,0.00
2022-09-12T04:12:51.207Z,4.00
2022-09-12T04:13:51.220Z,0.00
2022-09-12T04:14:51.162Z,0.00
2022-09-12T04:15:51.151Z,4.00
2022-09-12T04:16:51.216Z,0.00
2022-09-12T04:17:51.122Z,4.00
2022-09-12T04:18:51.124Z,4.00
2022-09-12T04:19:51.086Z,4.00
2022-09-12T04:20:51.052Z,8.00
2022-09-12T04:21:51.045Z,4.00
2022-09-12T04:22:51.037Z,8.00
2022-09-12T04:23:51.047Z,8.00
2022-09-12T04:24:50.986Z,12.00
2022-09-12T04:25:50.971Z,12.00
2022-09-12T04:26:50.988Z,12.00
2022-09-12T04:27:50.933Z,20.00
2022-09-12T04:28:50.952Z,20.00
2022-09-12T04:29:50.900Z,24.00
2022-09-12T04:30:50.977Z,28.00
2022-09-12T04:31:50.864Z,36.00
2022-09-12T04:32:50.864Z,44.00
2022-09-12T04:33:50.872Z,48.00
2022-09-12T04:34:50.826Z,60.00
2022-09-12T04:35:50.794Z,68.00
2022-09-12T04:36:50.795Z,76.00
2022-09-12T04:37:50.758Z,92.00
2022-09-12T04:38:50.769Z,108.00
2022-09-12T04:39:50.877Z,124.00
2022-09-12T04:40:50.715Z,144.00
2022-09-12T04:41:50.691Z,164.00
2022-09-12T04:42:50.680Z,188.00
2022-09-12T04:43:50.691Z,216.00
2022-09-12T04:44:50.647Z,240.00
2022-09-12T04:45:50.674Z,272.00
2022-09-12T04:46:50.607Z,304.00
2022-09-12T04:47:50.616Z,336.00
2022-09-12T04:48:54.601Z,372.00
2022-09-12T04:49:52.565Z,412.00
2022-09-12T04:50:50.548Z,452.00
2022-09-12T04:51:50.538Z,500.00
2022-09-12T04:52:50.503Z,548.00
2022-09-12T04:53:50.522Z,600.00
2022-09-12T04:54:50.460Z,660.00
2022-09-12T04:55:51.460Z,720.00
2022-09-12T04:56:50.463Z,788.00
2022-09-12T04:57:50.426Z,852.00
2022-09-12T04:58:50.452Z,920.00
2022-09-12T04:59:50.396Z,992.00
2022-09-12T05:00:50.358Z,1068.00
2022-09-12T05:01:50.397Z,1152.00
2022-09-12T05:02:50.355Z,1236.00
2022-09-12T05:03:50.346Z,1328.00
2022-09-12T05:04:50.297Z,1428.00
2022-09-12T05:05:53.305Z,1524.00
2022-09-12T05:06:52.268Z,1632.00
2022-09-12T05:07:50.246Z,1860.00
2022-09-12T05:08:50.267Z,1944.00
2022-09-12T05:09:50.200Z,2260.00
2022-09-12T05:10:50.230Z,3576.00
2022-09-12T05:12:05.940Z,4572.00
2022-09-12T05:12:52.161Z,5588.00
2022-09-12T05:13:50.193Z,6188.00
2022-09-12T05:14:50.132Z,7036.00
2022-09-12T05:15:50.109Z,8192.00
2022-09-12T05:16:50.146Z,9344.00
2022-09-12T05:17:50.075Z,10240.00
2022-09-12T05:18:50.103Z,10912.00
2022-09-12T05:19:50.039Z,8824.00
2022-09-12T05:20:50.047Z,5080.00
2022-09-12T05:21:50.001Z,4188.00
2022-09-12T05:22:49.993Z,8252.00
2022-09-12T05:23:50.001Z,13664.00
2022-09-12T05:24:50.650Z,16032.00
2022-09-12T05:25:50.941Z,12448.00
2022-09-12T05:26:49.917Z,6268.00
2022-09-12T05:27:50.591Z,11680.00
2022-09-12T05:28:50.923Z,17184.00
2022-09-12T05:29:50.872Z,18112.00
2022-09-12T05:30:49.860Z,19872.00
2022-09-12T05:31:49.840Z,20992.00
2022-09-12T05:32:49.814Z,21376.00
2022-09-12T05:33:49.826Z,21152.00
2022-09-12T05:34:49.782Z,21760.00
2022-09-12T05:35:49.766Z,22368.00
2022-09-12T05:36:49.770Z,24352.00
2022-09-12T05:37:49.729Z,25056.00
2022-09-12T05:38:49.737Z,26080.00
2022-09-12T05:39:49.724Z,27488.00
2022-09-12T05:40:49.670Z,28032.00
2022-09-12T05:41:49.651Z,29248.00
2022-09-12T05:42:49.635Z,21792.00
2022-09-12T05:43:49.658Z,11456.00
2022-09-12T05:44:49.618Z,9988.00
2022-09-12T05:45:49.617Z,19680.00
2022-09-12T05:46:49.585Z,29472.00
2022-09-12T05:47:49.590Z,29760.00
2022-09-12T05:48:53.710Z,31360.00
2022-09-12T05:49:51.529Z,32832.00
2022-09-12T05:50:49.512Z,34080.00
2022-09-12T05:51:49.519Z,36032.00
2022-09-12T05:52:49.478Z,34944.00
2022-09-12T05:53:49.538Z,36416.00
2022-09-12T05:54:49.488Z,37824.00
2022-09-12T05:55:49.420Z,39776.00
2022-09-12T05:56:49.425Z,39360.00
2022-09-12T05:57:49.374Z,40416.00
2022-09-12T05:58:49.393Z,41696.00
2022-09-12T05:59:49.336Z,43168.00
2022-09-12T06:00:49.323Z,44416.00
2022-09-12T06:01:49.444Z,43488.00
2022-09-12T06:02:49.292Z,35840.00
2022-09-12T06:03:49.313Z,19424.00
2022-09-12T06:04:49.278Z,34272.00
2022-09-12T06:05:50.738Z,43776.00
2022-09-12T06:06:50.287Z,43072.00
2022-09-12T06:07:49.222Z,30112.00
2022-09-12T06:08:49.304Z,14860.00
2022-09-12T06:09:49.180Z,19200.00
2022-09-12T06:10:49.155Z,39808.00
2022-09-12T06:11:49.157Z,53344.00
2022-09-12T06:12:49.152Z,54080.00
2022-09-12T06:13:49.148Z,51520.00
2022-09-12T06:14:49.106Z,51104.00
2022-09-12T06:15:49.090Z,51776.00
2022-09-12T06:16:49.103Z,53120.00
2022-09-12T06:17:51.395Z,53920.00
2022-09-12T06:18:50.074Z,52480.00
2022-09-12T06:19:49.018Z,49728.00
2022-09-12T06:20:49.005Z,50720.00
2022-09-12T06:21:48.980Z,52704.00
2022-09-12T06:22:48.985Z,56640.00
2022-09-12T06:23:48.972Z,59872.00
2022-09-12T06:24:48.951Z,59936.00
2022-09-12T06:25:48.903Z,59584.00
2022-09-12T06:26:48.891Z,58272.00
2022-09-12T06:27:49.879Z,58432.00
2022-09-12T06:28:48.899Z,63200.00
2022-09-12T06:29:48.928Z,64448.00
2022-09-12T06:30:48.941Z,63904.00
2022-09-12T06:31:48.821Z,62976.00
2022-09-12T06:32:48.802Z,53408.00
2022-09-12T06:33:48.846Z,28288.00
2022-09-12T06:34:48.798Z,18464.00
2022-09-12T06:35:48.783Z,20928.00
2022-09-12T06:36:48.730Z,42240.00
2022-09-12T06:37:48.717Z,67840.00
2022-09-12T06:38:48.742Z,74592.00
2022-09-12T06:39:48.776Z,72576.00
2022-09-12T06:40:48.762Z,72352.00
2022-09-12T06:41:48.657Z,70400.00
2022-09-12T06:42:48.640Z,68064.00
2022-09-12T06:43:48.703Z,69728.00
2022-09-12T06:44:48.648Z,71584.00
2022-09-12T06:45:48.710Z,73536.00
2022-09-12T06:46:48.588Z,72384.00
2022-09-12T06:47:48.592Z,70048.00
2022-09-12T06:48:48.723Z,69536.00
2022-09-12T06:49:48.552Z,72608.00
2022-09-12T06:50:48.515Z,74368.00
2022-09-12T06:51:48.510Z,76032.00
2022-09-12T06:52:48.508Z,75072.00
2022-09-12T06:53:48.517Z,72896.00
2022-09-12T06:54:48.470Z,73984.00
2022-09-12T06:55:48.475Z,74624.00
2022-09-12T06:56:48.430Z,75616.00
2022-09-12T06:57:48.401Z,77952.00
2022-09-12T06:58:48.455Z,78624.00
2022-09-12T06:59:48.371Z,76800.00
2022-09-12T07:00:48.360Z,50784.00
2022-09-12T07:01:48.421Z,30432.00
2022-09-12T07:02:48.330Z,56800.00
2022-09-12T07:03:48.339Z,80704.00
2022-09-12T07:04:48.287Z,85376.00
2022-09-12T07:05:48.303Z,86016.00
2022-09-12T07:06:48.255Z,85248.00
2022-09-12T07:07:48.249Z,83424.00
2022-09-12T07:08:48.274Z,84224.00
2022-09-12T07:09:48.213Z,78688.00
2022-09-12T07:10:48.198Z,83936.00
2022-09-12T07:11:48.175Z,82496.00
2022-09-12T07:12:48.168Z,81824.00
2022-09-12T07:13:48.166Z,85248.00
2022-09-12T07:14:48.134Z,80704.00
2022-09-12T07:15:48.109Z,81248.00
2022-09-12T07:16:48.176Z,81664.00
2022-09-12T07:17:48.080Z,79520.00
2022-09-12T07:18:48.096Z,80000.00
2022-09-12T07:19:48.074Z,80000.00
2022-09-12T07:20:48.032Z,82848.00
2022-09-12T07:21:48.012Z,86432.00
2022-09-12T07:22:48.008Z,85952.00
2022-09-12T07:23:48.281Z,82336.00
2022-09-12T07:24:47.980Z,84256.00
2022-09-12T07:25:47.965Z,84832.00
2022-09-12T07:26:47.963Z,75808.00
2022-09-12T07:27:51.095Z,45856.00
2022-09-12T07:28:48.967Z,45696.00
2022-09-12T07:29:47.917Z,75552.00
2022-09-12T07:30:47.984Z,84032.00
2022-09-12T07:31:47.865Z,80640.00
2022-09-12T07:32:47.871Z,81920.00
2022-09-12T07:33:52.361Z,85504.00
2022-09-12T07:34:49.851Z,86272.00
2022-09-12T07:35:47.821Z,88832.00
2022-09-12T07:36:47.792Z,83136.00
2022-09-12T07:37:47.792Z,63456.00
2022-09-12T07:38:47.896Z,40864.00
2022-09-12T07:39:47.780Z,27584.00
2022-09-12T07:40:47.732Z,26080.00
2022-09-12T07:41:47.723Z,25888.00
2022-09-12T07:42:47.699Z,26304.00
2022-09-12T07:43:47.889Z,25984.00
2022-09-12T07:44:47.684Z,26624.00
2022-09-12T07:45:47.701Z,27168.00
2022-09-12T07:46:47.649Z,34368.00
2022-09-12T07:47:47.663Z,54944.00
2022-09-12T07:48:47.660Z,81472.00
2022-09-12T07:49:47.667Z,94272.00
2022-09-12T07:50:47.641Z,92544.00
2022-09-12T07:51:47.656Z,87424.00
2022-09-12T07:52:47.560Z,81760.00
2022-09-12T07:53:47.733Z,82016.00
2022-09-12T07:54:47.526Z,77728.00
2022-09-12T07:55:47.539Z,78304.00
2022-09-12T07:56:47.497Z,82528.00
2022-09-12T07:57:47.481Z,84544.00
2022-09-12T07:58:47.557Z,83872.00
2022-09-12T07:59:52.773Z,83072.00
2022-09-12T08:00:49.443Z,78208.00
2022-09-12T08:01:47.436Z,80736.00
2022-09-12T08:02:47.431Z,77376.00
2022-09-12T08:03:47.594Z,71872.00
2022-09-12T08:04:47.376Z,75456.00
2022-09-12T08:05:47.369Z,76960.00
2022-09-12T08:06:47.353Z,84672.00
2022-09-12T08:07:47.336Z,90912.00
2022-09-12T08:08:47.356Z,91392.00
2022-09-12T08:09:47.310Z,91712.00
2022-09-12T08:10:47.395Z,92672.00
2022-09-12T08:11:47.278Z,90848.00
2022-09-12T08:12:47.268Z,90304.00
2022-09-12T08:13:49.635Z,89536.00
2022-09-12T08:14:48.253Z,90912.00
2022-09-12T08:15:47.246Z,89088.00
2022-09-12T08:16:47.235Z,90048.00
2022-09-12T08:17:47.200Z,88608.00
2022-09-12T08:18:47.210Z,92736.00
2022-09-12T08:19:47.167Z,95392.00
2022-09-12T08:20:47.168Z,95072.00
2022-09-12T08:21:47.136Z,92768.00
2022-09-12T08:22:47.130Z,92224.00
2022-09-12T08:23:47.295Z,90400.00
2022-09-12T08:24:47.102Z,90048.00
2022-09-12T08:25:47.097Z,87232.00
2022-09-12T08:26:47.101Z,85248.00
2022-09-12T08:27:47.067Z,84992.00
2022-09-12T08:28:47.095Z,85728.00
2022-09-12T08:29:47.034Z,84992.00
2022-09-12T08:30:47.073Z,80832.00
2022-09-12T08:31:47.009Z,76352.00
2022-09-12T08:32:47.032Z,81056.00
2022-09-12T08:33:47.104Z,78080.00
2022-09-12T08:34:46.980Z,78816.00
2022-09-12T08:35:46.937Z,70464.00
2022-09-12T08:36:46.925Z,82144.00
2022-09-12T08:37:46.926Z,77536.00
2022-09-12T08:38:46.948Z,80640.00
2022-09-12T08:39:46.905Z,79680.00
2022-09-12T08:40:46.897Z,78368.00
2022-09-12T08:41:46.866Z,78304.00
2022-09-12T08:42:46.840Z,73888.00
2022-09-12T08:43:46.924Z,72800.00
2022-09-12T08:44:46.817Z,74784.00
2022-09-12T08:45:47.837Z,77664.00
2022-09-12T08:46:47.127Z,82304.00
2022-09-12T08:47:46.773Z,83552.00
2022-09-12T08:48:46.815Z,86496.00
2022-09-12T08:49:46.754Z,85088.00
2022-09-12T08:50:49.849Z,80320.00
2022-09-12T08:51:47.715Z,75360.00
2022-09-12T08:52:46.708Z,76768.00
2022-09-12T08:53:47.298Z,76064.00
2022-09-12T08:54:46.700Z,74240.00
2022-09-12T08:55:46.668Z,74784.00
2022-09-12T08:56:46.654Z,76416.00
2022-09-12T08:57:46.646Z,77856.00
2022-09-12T08:58:46.655Z,72800.00
2022-09-12T08:59:46.618Z,70784.00
2022-09-12T09:00:46.592Z,69888.00
2022-09-12T09:01:52.539Z,70528.00
2022-09-12T09:02:47.677Z,69472.00
2022-09-12T09:03:46.670Z,69728.00
2022-09-12T09:04:46.553Z,68064.00
2022-09-12T09:05:46.522Z,64736.00
2022-09-12T09:06:46.515Z,63584.00
2022-09-12T09:07:46.491Z,61920.00
2022-09-12T09:08:46.506Z,61184.00
2022-09-12T09:09:46.472Z,58752.00
2022-09-12T09:10:46.447Z,56608.00
2022-09-12T09:11:46.468Z,54656.00
2022-09-12T09:12:46.420Z,54688.00
2022-09-12T09:13:46.562Z,54656.00
2022-09-12T09:14:46.392Z,52672.00
2022-09-12T09:15:46.411Z,50784.00
2022-09-12T09:16:46.375Z,46432.00
2022-09-12T09:17:46.353Z,44320.00
2022-09-12T09:18:46.366Z,41312.00
2022-09-12T09:19:50.109Z,40224.00
2022-09-12T09:20:47.334Z,39520.00
2022-09-12T09:21:46.330Z,38400.00
2022-09-12T09:22:46.275Z,33792.00
2022-09-12T09:23:46.367Z,32256.00
2022-09-12T09:24:46.259Z,30496.00
2022-09-12T09:25:46.239Z,28704.00
2022-09-12T09:26:46.211Z,29664.00
2022-09-12T09:27:46.211Z,30400.00
2022-09-12T09:28:46.210Z,28768.00
2022-09-12T09:29:46.160Z,27104.00
2022-09-12T09:30:46.184Z,26240.00
2022-09-12T09:31:46.146Z,25632.00
2022-09-12T09:32:46.150Z,24096.00
2022-09-12T09:33:46.237Z,24320.00
2022-09-12T09:34:46.098Z,24224.00
2022-09-12T09:35:46.094Z,23360.00
2022-09-12T09:36:46.061Z,22176.00
2022-09-12T09:37:46.056Z,21728.00
2022-09-12T09:38:46.194Z,21632.00
2022-09-12T09:39:46.062Z,21632.00
2022-09-12T09:40:45.995Z,21536.00
2022-09-12T09:41:45.989Z,22368.00
2022-09-12T09:42:45.972Z,23680.00
2022-09-12T09:43:45.986Z,25216.00
2022-09-12T09:44:45.938Z,26208.00
2022-09-12T09:45:47.867Z,27552.00
2022-09-12T09:46:46.945Z,28544.00
2022-09-12T09:47:45.888Z,31616.00
2022-09-12T09:48:46.023Z,32800.00
2022-09-12T09:49:45.955Z,31808.00
2022-09-12T09:50:46.842Z,30464.00
2022-09-12T09:51:45.832Z,31584.00
2022-09-12T09:52:45.818Z,33536.00
2022-09-12T09:53:45.870Z,36032.00
2022-09-12T09:54:45.783Z,36384.00
2022-09-12T09:55:45.775Z,37632.00
2022-09-12T09:56:45.748Z,40384.00
2022-09-12T09:57:45.758Z,42752.00
2022-09-12T09:58:45.847Z,43744.00
2022-09-12T09:59:45.707Z,46080.00
2022-09-12T10:00:45.688Z,48320.00
2022-09-12T10:01:45.701Z,49792.00
2022-09-12T10:02:45.724Z,51200.00
2022-09-12T10:03:45.681Z,50144.00
2022-09-12T10:04:45.639Z,44256.00
2022-09-12T10:05:45.619Z,51936.00
2022-09-12T10:06:45.606Z,48992.00
2022-09-12T10:07:45.600Z,46912.00
2022-09-12T10:08:45.664Z,45440.00
2022-09-12T10:09:45.557Z,45024.00
2022-09-12T10:10:45.566Z,48448.00
2022-09-12T10:11:46.116Z,47488.00
2022-09-12T10:12:46.530Z,48512.00
2022-09-12T10:13:45.554Z,48128.00
2022-09-12T10:14:45.477Z,48960.00
2022-09-12T10:15:45.538Z,47840.00
2022-09-12T10:16:45.459Z,46560.00
2022-09-12T10:17:45.442Z,49824.00
2022-09-12T10:18:45.886Z,50720.00
2022-09-12T10:19:49.855Z,50240.00
2022-09-12T10:20:46.384Z,50080.00
2022-09-12T10:21:45.375Z,50144.00
2022-09-12T10:22:45.381Z,52160.00
2022-09-12T10:23:45.461Z,50208.00
2022-09-12T10:24:45.344Z,49312.00
2022-09-12T10:25:45.326Z,48672.00
2022-09-12T10:26:45.289Z,49216.00
2022-09-12T10:27:45.288Z,47456.00
2022-09-12T10:28:45.437Z,49152.00
2022-09-12T10:29:45.254Z,48832.00
2022-09-12T10:30:45.302Z,48352.00
2022-09-12T10:31:45.223Z,43552.00
2022-09-12T10:32:45.226Z,43616.00
2022-09-12T10:33:45.274Z,45696.00
2022-09-12T10:34:45.178Z,42400.00
2022-09-12T10:35:45.162Z,41728.00
2022-09-12T10:36:45.158Z,41824.00
2022-09-12T10:37:48.328Z,42112.00
2022-09-12T10:38:46.157Z,38944.00
2022-09-12T10:39:45.172Z,39744.00
2022-09-12T10:40:45.126Z,40736.00
2022-09-12T10:41:45.081Z,41216.00
2022-09-12T10:42:45.080Z,38112.00
2022-09-12T10:43:45.095Z,38016.00
2022-09-12T10:44:45.039Z,37760.00
2022-09-12T10:45:45.058Z,39136.00
2022-09-12T10:46:45.004Z,38624.00
2022-09-12T10:47:44.993Z,36576.00
2022-09-12T10:48:45.006Z,35776.00
2022-09-12T10:49:44.968Z,35584.00
2022-09-12T10:50:44.943Z,36032.00
2022-09-12T10:51:44.955Z,36448.00
2022-09-12T10:52:44.911Z,35744.00
2022-09-12T10:53:45.002Z,30848.00
2022-09-12T10:54:44.877Z,26624.00
2022-09-12T10:55:44.860Z,23456.00
2022-09-12T10:56:44.866Z,22368.00
2022-09-12T10:57:44.832Z,22080.00
2022-09-12T10:58:44.966Z,21664.00
2022-09-12T10:59:44.813Z,21152.00
2022-09-12T11:00:44.796Z,20832.00
2022-09-12T11:01:44.864Z,20640.00
2022-09-12T11:02:44.828Z,20480.00
2022-09-12T11:03:44.786Z,20320.00
2022-09-12T11:04:44.734Z,20288.00
2022-09-12T11:05:44.741Z,20192.00
2022-09-12T11:06:44.738Z,19968.00
2022-09-12T11:07:44.709Z,19776.00
2022-09-12T11:08:44.707Z,19456.00
2022-09-12T11:09:44.654Z,18976.00
2022-09-12T11:10:44.665Z,18592.00
2022-09-12T11:11:44.617Z,18304.00
2022-09-12T11:12:44.599Z,17984.00
2022-09-12T11:13:44.627Z,17760.00
2022-09-12T11:14:44.587Z,17536.00
2022-09-12T11:15:44.644Z,17376.00
2022-09-12T11:16:44.549Z,17184.00
2022-09-12T11:17:44.525Z,17024.00
2022-09-12T11:18:44.538Z,16960.00
2022-09-12T11:19:44.497Z,17024.00
2022-09-12T11:20:44.474Z,17088.00
2022-09-12T11:21:44.500Z,17184.00
2022-09-12T11:22:44.441Z,17248.00
2022-09-12T11:23:44.487Z,17216.00
2022-09-12T11:24:44.413Z,17248.00
2022-09-12T11:25:44.405Z,17312.00
2022-09-12T11:26:44.388Z,17440.00
2022-09-12T11:27:44.382Z,17440.00
2022-09-12T11:28:47.253Z,17504.00
2022-09-12T11:29:45.389Z,17536.00
2022-09-12T11:30:44.354Z,17344.00
2022-09-12T11:31:44.366Z,17280.00
2022-09-12T11:32:44.302Z,17184.00
2022-09-12T11:33:44.500Z,17152.00
2022-09-12T11:34:44.263Z,17056.00
2022-09-12T11:35:44.294Z,17024.00
2022-09-12T11:36:44.255Z,16992.00
2022-09-12T11:37:44.252Z,16896.00
2022-09-12T11:38:44.263Z,16768.00
2022-09-12T11:39:44.229Z,16672.00
2022-09-12T11:40:44.163Z,16704.00
2022-09-12T11:41:44.157Z,16608.00
2022-09-12T11:42:44.139Z,16480.00
2022-09-12T11:43:44.160Z,16416.00
2022-09-12T11:44:44.124Z,16128.00
2022-09-12T11:45:44.131Z,15844.00
2022-09-12T11:46:45.893Z,15924.00
2022-09-12T11:47:44.062Z,16256.00
2022-09-12T11:48:44.112Z,16416.00
2022-09-12T11:49:44.015Z,16736.00
2022-09-12T11:50:44.051Z,16832.00
2022-09-12T11:51:43.994Z,16736.00
2022-09-12T11:52:43.976Z,16092.00
2022-09-12T11:53:44.000Z,15856.00
2022-09-12T11:54:43.947Z,15968.00
2022-09-12T11:55:43.945Z,16256.00
2022-09-12T11:56:43.930Z,16608.00
2022-09-12T11:57:43.891Z,16896.00
2022-09-12T11:58:43.882Z,16832.00
2022-09-12T11:59:43.992Z,16544.00
2022-09-12T12:00:43.850Z,16180.00
2022-09-12T12:01:48.363Z,15836.00
2022-09-12T12:02:45.859Z,15496.00
2022-09-12T12:03:43.850Z,15472.00
2022-09-12T12:04:43.838Z,15440.00
2022-09-12T12:05:43.763Z,15500.00
2022-09-12T12:06:43.756Z,15784.00
2022-09-12T12:07:45.764Z,15840.00
2022-09-12T12:08:44.723Z,15404.00
2022-09-12T12:09:43.795Z,14928.00
2022-09-12T12:10:43.690Z,14920.00
2022-09-12T12:11:43.668Z,14544.00
2022-09-12T12:12:43.673Z,14420.00
2022-09-12T12:13:43.640Z,14564.00
2022-09-12T12:14:43.649Z,14684.00
2022-09-12T12:15:43.641Z,14832.00
2022-09-12T12:16:43.586Z,14988.00
2022-09-12T12:17:43.575Z,15200.00
2022-09-12T12:18:43.562Z,15316.00